sensor_id;sensor_type;location;lat;lon;timestamp;P1;durP1;ratioP1;P2;durP2;ratioP2
7493;SDS011;3788;49.902;8.590;2023-09-19T00:01:32;1.67;;;1.20;;
7493;SDS011;3788;49.902;8.590;2023-09-19T00:04:00;2.13;;;1.60;;
7493;SDS011;3788;49.902;8.590;2023-09-19T00:06:28;1.60;;;1.13;;
7493;SDS011;3788;49.902;8.590;2023-09-19T00:08:56;2.30;;;1.30;;
7493;SDS011;3788;49.902;8.590;2023-09-19T00:11:24;1.10;;;1.10;;
7493;SDS011;3788;49.902;8.590;2023-09-19T00:13:52;1.67;;;1.10;;
7493;SDS011;3788;49.902;8.590;2023-09-19T00:16:18;3.53;;;1.30;;
7493;SDS011;3788;49.902;8.590;2023-09-19T00:18:45;4.00;;;1.23;;
7493;SDS011;3788;49.902;8.590;2023-09-19T00:21:15;2.47;;;1.27;;
7493;SDS011;3788;49.902;8.590;2023-09-19T00:23:41;2.23;;;1.20;;
7493;SDS011;3788;49.902;8.590;2023-09-19T00:26:08;2.93;;;1.47;;
7493;SDS011;3788;49.902;8.590;2023-09-19T00:28:35;1.10;;;1.00;;
7493;SDS011;3788;49.902;8.590;2023-09-19T00:31:01;1.37;;;1.20;;
7493;SDS011;3788;49.902;8.590;2023-09-19T00:33:30;2.30;;;1.50;;
7493;SDS011;3788;49.902;8.590;2023-09-19T00:35:56;2.37;;;1.43;;
7493;SDS011;3788;49.902;8.590;2023-09-19T00:38:24;1.40;;;1.30;;
7493;SDS011;3788;49.902;8.590;2023-09-19T00:40:53;1.90;;;1.40;;
7493;SDS011;3788;49.902;8.590;2023-09-19T00:43:21;1.60;;;1.40;;
7493;SDS011;3788;49.902;8.590;2023-09-19T00:45:50;1.20;;;1.10;;
7493;SDS011;3788;49.902;8.590;2023-09-19T00:48:19;1.40;;;1.10;;
7493;SDS011;3788;49.902;8.590;2023-09-19T00:50:46;1.50;;;1.40;;
7493;SDS011;3788;49.902;8.590;2023-09-19T00:53:15;3.40;;;1.53;;
7493;SDS011;3788;49.902;8.590;2023-09-19T00:55:46;1.50;;;1.30;;
7493;SDS011;3788;49.902;8.590;2023-09-19T00:58:14;1.97;;;1.50;;
7493;SDS011;3788;49.902;8.590;2023-09-19T01:00:43;1.70;;;1.40;;
7493;SDS011;3788;49.902;8.590;2023-09-19T01:03:10;2.97;;;1.23;;
7493;SDS011;3788;49.902;8.590;2023-09-19T01:05:38;2.70;;;1.17;;
7493;SDS011;3788;49.902;8.590;2023-09-19T01:08:05;1.97;;;1.53;;
7493;SDS011;3788;49.902;8.590;2023-09-19T01:10:32;1.23;;;1.13;;
7493;SDS011;3788;49.902;8.590;2023-09-19T01:13:02;2.47;;;1.37;;
7493;SDS011;3788;49.902;8.590;2023-09-19T01:15:38;1.93;;;1.37;;
7493;SDS011;3788;49.902;8.590;2023-09-19T01:18:21;3.63;;;1.30;;
7493;SDS011;3788;49.902;8.590;2023-09-19T01:20:57;3.53;;;1.47;;
7493;SDS011;3788;49.902;8.590;2023-09-19T01:23:34;2.23;;;1.30;;
7493;SDS011;3788;49.902;8.590;2023-09-19T01:26:18;1.50;;;1.40;;
7493;SDS011;3788;49.902;8.590;2023-09-19T01:29:09;2.17;;;1.60;;
7493;SDS011;3788;49.902;8.590;2023-09-19T01:31:47;1.70;;;1.50;;
7493;SDS011;3788;49.902;8.590;2023-09-19T01:34:19;4.33;;;1.60;;
7493;SDS011;3788;49.902;8.590;2023-09-19T01:36:46;1.60;;;1.50;;
7493;SDS011;3788;49.902;8.590;2023-09-19T01:39:12;2.27;;;1.57;;
7493;SDS011;3788;49.902;8.590;2023-09-19T01:41:49;2.23;;;1.70;;
7493;SDS011;3788;49.902;8.590;2023-09-19T01:44:24;2.90;;;1.40;;
7493;SDS011;3788;49.902;8.590;2023-09-19T01:46:57;1.67;;;1.57;;
7493;SDS011;3788;49.902;8.590;2023-09-19T01:49:29;1.53;;;1.20;;
7493;SDS011;3788;49.902;8.590;2023-09-19T01:52:02;1.80;;;1.60;;
7493;SDS011;3788;49.902;8.590;2023-09-19T01:54:40;3.27;;;1.70;;
7493;SDS011;3788;49.902;8.590;2023-09-19T01:57:14;1.90;;;1.60;;
7493;SDS011;3788;49.902;8.590;2023-09-19T01:59:48;1.50;;;1.40;;
7493;SDS011;3788;49.902;8.590;2023-09-19T02:02:19;2.23;;;1.67;;
7493;SDS011;3788;49.902;8.590;2023-09-19T02:04:47;1.90;;;1.53;;
7493;SDS011;3788;49.902;8.590;2023-09-19T02:07:15;3.00;;;1.77;;
7493;SDS011;3788;49.902;8.590;2023-09-19T02:09:42;1.93;;;1.57;;
7493;SDS011;3788;49.902;8.590;2023-09-19T02:12:09;2.27;;;1.30;;
7493;SDS011;3788;49.902;8.590;2023-09-19T02:14:35;3.07;;;1.50;;
7493;SDS011;3788;49.902;8.590;2023-09-19T02:17:03;2.70;;;1.97;;
7493;SDS011;3788;49.902;8.590;2023-09-19T02:19:37;3.23;;;1.70;;
7493;SDS011;3788;49.902;8.590;2023-09-19T02:22:05;4.50;;;1.83;;
7493;SDS011;3788;49.902;8.590;2023-09-19T02:24:35;3.00;;;1.67;;
7493;SDS011;3788;49.902;8.590;2023-09-19T02:27:02;2.10;;;1.50;;
7493;SDS011;3788;49.902;8.590;2023-09-19T02:29:31;1.47;;;1.37;;
7493;SDS011;3788;49.902;8.590;2023-09-19T02:31:59;3.10;;;1.70;;
7493;SDS011;3788;49.902;8.590;2023-09-19T02:34:26;2.43;;;1.70;;
7493;SDS011;3788;49.902;8.590;2023-09-19T02:36:54;2.67;;;1.77;;
7493;SDS011;3788;49.902;8.590;2023-09-19T02:39:21;1.93;;;1.73;;
7493;SDS011;3788;49.902;8.590;2023-09-19T02:41:48;3.23;;;1.77;;
7493;SDS011;3788;49.902;8.590;2023-09-19T02:44:15;1.70;;;1.60;;
7493;SDS011;3788;49.902;8.590;2023-09-19T02:46:42;1.47;;;1.37;;
7493;SDS011;3788;49.902;8.590;2023-09-19T02:49:09;1.57;;;1.33;;
7493;SDS011;3788;49.902;8.590;2023-09-19T02:51:36;2.17;;;1.50;;
7493;SDS011;3788;49.902;8.590;2023-09-19T02:54:04;2.27;;;1.50;;
7493;SDS011;3788;49.902;8.590;2023-09-19T02:56:33;1.50;;;1.40;;
7493;SDS011;3788;49.902;8.590;2023-09-19T02:59:00;3.73;;;1.90;;
7493;SDS011;3788;49.902;8.590;2023-09-19T03:01:28;1.67;;;1.57;;
7493;SDS011;3788;49.902;8.590;2023-09-19T03:03:55;2.37;;;1.77;;
7493;SDS011;3788;49.902;8.590;2023-09-19T03:06:21;2.43;;;1.77;;
7493;SDS011;3788;49.902;8.590;2023-09-19T03:08:49;2.43;;;1.80;;
7493;SDS011;3788;49.902;8.590;2023-09-19T03:11:18;1.70;;;1.43;;
7493;SDS011;3788;49.902;8.590;2023-09-19T03:13:50;1.73;;;1.60;;
7493;SDS011;3788;49.902;8.590;2023-09-19T03:16:18;2.10;;;1.80;;
7493;SDS011;3788;49.902;8.590;2023-09-19T03:18:46;1.67;;;1.57;;
7493;SDS011;3788;49.902;8.590;2023-09-19T03:21:13;1.70;;;1.60;;
7493;SDS011;3788;49.902;8.590;2023-09-19T03:23:40;2.27;;;2.07;;
7493;SDS011;3788;49.902;8.590;2023-09-19T03:26:10;1.97;;;1.77;;
7493;SDS011;3788;49.902;8.590;2023-09-19T03:28:38;1.60;;;1.50;;
7493;SDS011;3788;49.902;8.590;2023-09-19T03:31:06;1.57;;;1.47;;
7493;SDS011;3788;49.902;8.590;2023-09-19T03:33:33;2.70;;;2.13;;
7493;SDS011;3788;49.902;8.590;2023-09-19T03:36:00;1.60;;;1.50;;
7493;SDS011;3788;49.902;8.590;2023-09-19T03:38:29;2.20;;;2.00;;
7493;SDS011;3788;49.902;8.590;2023-09-19T03:40:56;3.87;;;2.00;;
7493;SDS011;3788;49.902;8.590;2023-09-19T03:43:23;2.43;;;1.60;;
7493;SDS011;3788;49.902;8.590;2023-09-19T03:45:51;1.80;;;1.70;;
7493;SDS011;3788;49.902;8.590;2023-09-19T03:48:19;2.23;;;1.70;;
7493;SDS011;3788;49.902;8.590;2023-09-19T03:50:46;2.13;;;1.83;;
7493;SDS011;3788;49.902;8.590;2023-09-19T03:53:13;2.97;;;1.70;;
7493;SDS011;3788;49.902;8.590;2023-09-19T03:55:40;1.93;;;1.80;;
7493;SDS011;3788;49.902;8.590;2023-09-19T03:58:06;1.70;;;1.60;;
7493;SDS011;3788;49.902;8.590;2023-09-19T04:00:33;1.70;;;1.60;;
7493;SDS011;3788;49.902;8.590;2023-09-19T04:03:01;1.77;;;1.67;;
7493;SDS011;3788;49.902;8.590;2023-09-19T04:05:31;2.67;;;1.73;;
7493;SDS011;3788;49.902;8.590;2023-09-19T04:07:58;1.50;;;1.40;;
7493;SDS011;3788;49.902;8.590;2023-09-19T04:10:25;1.80;;;1.70;;
7493;SDS011;3788;49.902;8.590;2023-09-19T04:12:51;2.10;;;1.67;;
7493;SDS011;3788;49.902;8.590;2023-09-19T04:15:19;2.00;;;1.80;;
7493;SDS011;3788;49.902;8.590;2023-09-19T04:17:47;2.13;;;1.73;;
7493;SDS011;3788;49.902;8.590;2023-09-19T04:20:16;2.40;;;2.10;;
7493;SDS011;3788;49.902;8.590;2023-09-19T04:22:44;1.70;;;1.60;;
7493;SDS011;3788;49.902;8.590;2023-09-19T04:25:11;2.03;;;1.60;;
7493;SDS011;3788;49.902;8.590;2023-09-19T04:27:38;2.77;;;1.73;;
7493;SDS011;3788;49.902;8.590;2023-09-19T04:30:05;2.73;;;2.00;;
7493;SDS011;3788;49.902;8.590;2023-09-19T04:32:35;1.93;;;1.53;;
7493;SDS011;3788;49.902;8.590;2023-09-19T04:35:04;1.70;;;1.60;;
7493;SDS011;3788;49.902;8.590;2023-09-19T04:37:34;2.00;;;1.80;;
7493;SDS011;3788;49.902;8.590;2023-09-19T04:40:04;5.33;;;2.00;;
7493;SDS011;3788;49.902;8.590;2023-09-19T04:42:35;1.80;;;1.70;;
7493;SDS011;3788;49.902;8.590;2023-09-19T04:45:02;2.00;;;1.83;;
7493;SDS011;3788;49.902;8.590;2023-09-19T04:47:29;3.53;;;2.07;;
7493;SDS011;3788;49.902;8.590;2023-09-19T04:49:56;3.43;;;1.90;;
7493;SDS011;3788;49.902;8.590;2023-09-19T04:52:24;2.10;;;1.77;;
7493;SDS011;3788;49.902;8.590;2023-09-19T04:54:52;2.00;;;1.73;;
7493;SDS011;3788;49.902;8.590;2023-09-19T04:57:18;4.73;;;2.30;;
7493;SDS011;3788;49.902;8.590;2023-09-19T04:59:45;2.63;;;1.90;;
7493;SDS011;3788;49.902;8.590;2023-09-19T05:02:11;1.83;;;1.50;;
7493;SDS011;3788;49.902;8.590;2023-09-19T05:04:38;2.47;;;1.83;;
7493;SDS011;3788;49.902;8.590;2023-09-19T05:07:05;1.70;;;1.60;;
7493;SDS011;3788;49.902;8.590;2023-09-19T05:09:32;2.20;;;1.87;;
7493;SDS011;3788;49.902;8.590;2023-09-19T05:12:00;2.17;;;1.97;;
7493;SDS011;3788;49.902;8.590;2023-09-19T05:14:27;2.83;;;2.20;;
7493;SDS011;3788;49.902;8.590;2023-09-19T05:16:54;2.70;;;2.07;;
7493;SDS011;3788;49.902;8.590;2023-09-19T05:19:21;3.43;;;3.07;;
7493;SDS011;3788;49.902;8.590;2023-09-19T05:21:48;2.60;;;2.40;;
7493;SDS011;3788;49.902;8.590;2023-09-19T05:24:14;4.53;;;3.00;;
7493;SDS011;3788;49.902;8.590;2023-09-19T05:26:41;3.53;;;3.23;;
7493;SDS011;3788;49.902;8.590;2023-09-19T05:29:10;3.33;;;3.03;;
7493;SDS011;3788;49.902;8.590;2023-09-19T05:31:37;3.20;;;2.90;;
7493;SDS011;3788;49.902;8.590;2023-09-19T05:34:06;5.60;;;3.17;;
7493;SDS011;3788;49.902;8.590;2023-09-19T05:36:32;4.77;;;3.10;;
7493;SDS011;3788;49.902;8.590;2023-09-19T05:38:59;3.03;;;2.80;;
7493;SDS011;3788;49.902;8.590;2023-09-19T05:41:26;3.90;;;3.20;;
7493;SDS011;3788;49.902;8.590;2023-09-19T05:43:53;3.40;;;3.10;;
7493;SDS011;3788;49.902;8.590;2023-09-19T05:46:21;4.17;;;3.40;;
7493;SDS011;3788;49.902;8.590;2023-09-19T05:48:47;3.33;;;3.00;;
7493;SDS011;3788;49.902;8.590;2023-09-19T05:51:14;3.40;;;3.10;;
7493;SDS011;3788;49.902;8.590;2023-09-19T05:53:42;3.30;;;3.00;;
7493;SDS011;3788;49.902;8.590;2023-09-19T05:56:09;3.90;;;3.07;;
7493;SDS011;3788;49.902;8.590;2023-09-19T05:58:36;3.47;;;2.57;;
7493;SDS011;3788;49.902;8.590;2023-09-19T06:01:03;4.30;;;2.50;;
7493;SDS011;3788;49.902;8.590;2023-09-19T06:03:33;3.87;;;2.90;;
7493;SDS011;3788;49.902;8.590;2023-09-19T06:06:00;3.67;;;2.90;;
7493;SDS011;3788;49.902;8.590;2023-09-19T06:08:27;4.30;;;2.47;;
7493;SDS011;3788;49.902;8.590;2023-09-19T06:10:55;4.00;;;2.53;;
7493;SDS011;3788;49.902;8.590;2023-09-19T06:13:22;2.80;;;2.60;;
7493;SDS011;3788;49.902;8.590;2023-09-19T06:15:51;4.00;;;3.20;;
7493;SDS011;3788;49.902;8.590;2023-09-19T06:18:19;2.93;;;2.50;;
7493;SDS011;3788;49.902;8.590;2023-09-19T06:20:47;5.30;;;3.00;;
7493;SDS011;3788;49.902;8.590;2023-09-19T06:23:16;3.30;;;2.87;;
7493;SDS011;3788;49.902;8.590;2023-09-19T06:25:43;3.23;;;2.50;;
7493;SDS011;3788;49.902;8.590;2023-09-19T06:28:09;2.77;;;2.57;;
7493;SDS011;3788;49.902;8.590;2023-09-19T06:30:38;3.70;;;2.57;;
7493;SDS011;3788;49.902;8.590;2023-09-19T06:33:06;3.73;;;2.50;;
7493;SDS011;3788;49.902;8.590;2023-09-19T06:35:33;3.53;;;2.53;;
7493;SDS011;3788;49.902;8.590;2023-09-19T06:38:03;3.43;;;2.30;;
7493;SDS011;3788;49.902;8.590;2023-09-19T06:40:30;4.73;;;2.00;;
7493;SDS011;3788;49.902;8.590;2023-09-19T06:42:57;2.80;;;2.10;;
7493;SDS011;3788;49.902;8.590;2023-09-19T06:45:27;2.40;;;2.03;;
7493;SDS011;3788;49.902;8.590;2023-09-19T06:47:53;4.03;;;2.23;;
7493;SDS011;3788;49.902;8.590;2023-09-19T06:50:22;3.60;;;1.97;;
7493;SDS011;3788;49.902;8.590;2023-09-19T06:52:50;3.10;;;2.20;;
7493;SDS011;3788;49.902;8.590;2023-09-19T06:55:20;2.20;;;2.00;;
7493;SDS011;3788;49.902;8.590;2023-09-19T06:57:50;2.37;;;2.00;;
7493;SDS011;3788;49.902;8.590;2023-09-19T07:00:19;3.17;;;2.10;;
7493;SDS011;3788;49.902;8.590;2023-09-19T07:02:54;3.30;;;1.90;;
7493;SDS011;3788;49.902;8.590;2023-09-19T07:05:22;3.37;;;2.00;;
7493;SDS011;3788;49.902;8.590;2023-09-19T07:07:48;3.17;;;2.40;;
7493;SDS011;3788;49.902;8.590;2023-09-19T07:10:15;2.73;;;2.30;;
7493;SDS011;3788;49.902;8.590;2023-09-19T07:12:44;2.67;;;2.30;;
7493;SDS011;3788;49.902;8.590;2023-09-19T07:15:11;3.03;;;2.43;;
7493;SDS011;3788;49.902;8.590;2023-09-19T07:17:38;4.33;;;2.70;;
7493;SDS011;3788;49.902;8.590;2023-09-19T07:20:05;4.13;;;2.47;;
7493;SDS011;3788;49.902;8.590;2023-09-19T07:22:33;2.17;;;1.97;;
7493;SDS011;3788;49.902;8.590;2023-09-19T07:25:00;5.23;;;2.20;;
7493;SDS011;3788;49.902;8.590;2023-09-19T07:27:26;3.67;;;1.80;;
7493;SDS011;3788;49.902;8.590;2023-09-19T07:29:55;2.53;;;2.03;;
7493;SDS011;3788;49.902;8.590;2023-09-19T07:32:22;3.43;;;1.80;;
7493;SDS011;3788;49.902;8.590;2023-09-19T07:34:49;5.10;;;2.53;;
7493;SDS011;3788;49.902;8.590;2023-09-19T07:37:15;3.93;;;1.80;;
7493;SDS011;3788;49.902;8.590;2023-09-19T07:39:42;2.33;;;1.90;;
7493;SDS011;3788;49.902;8.590;2023-09-19T07:42:09;3.30;;;1.77;;
7493;SDS011;3788;49.902;8.590;2023-09-19T07:44:42;4.07;;;1.90;;
7493;SDS011;3788;49.902;8.590;2023-09-19T07:47:13;3.77;;;1.90;;
7493;SDS011;3788;49.902;8.590;2023-09-19T07:49:40;3.20;;;1.87;;
7493;SDS011;3788;49.902;8.590;2023-09-19T07:52:07;1.73;;;1.53;;
7493;SDS011;3788;49.902;8.590;2023-09-19T07:54:34;2.57;;;2.17;;
7493;SDS011;3788;49.902;8.590;2023-09-19T07:57:01;2.43;;;1.97;;
7493;SDS011;3788;49.902;8.590;2023-09-19T07:59:27;2.53;;;1.33;;
7493;SDS011;3788;49.902;8.590;2023-09-19T08:01:54;3.93;;;1.60;;
7493;SDS011;3788;49.902;8.590;2023-09-19T08:04:22;2.87;;;1.90;;
7493;SDS011;3788;49.902;8.590;2023-09-19T08:06:50;2.10;;;1.57;;
7493;SDS011;3788;49.902;8.590;2023-09-19T08:09:18;1.90;;;1.53;;
7493;SDS011;3788;49.902;8.590;2023-09-19T08:11:45;2.37;;;1.30;;
7493;SDS011;3788;49.902;8.590;2023-09-19T08:14:12;3.57;;;1.30;;
7493;SDS011;3788;49.902;8.590;2023-09-19T08:16:40;2.47;;;1.30;;
7493;SDS011;3788;49.902;8.590;2023-09-19T08:19:07;3.57;;;1.60;;
7493;SDS011;3788;49.902;8.590;2023-09-19T08:21:37;2.03;;;1.27;;
7493;SDS011;3788;49.902;8.590;2023-09-19T08:24:04;2.70;;;1.50;;
7493;SDS011;3788;49.902;8.590;2023-09-19T08:26:31;1.70;;;1.00;;
7493;SDS011;3788;49.902;8.590;2023-09-19T08:28:57;1.67;;;1.13;;
7493;SDS011;3788;49.902;8.590;2023-09-19T08:31:29;3.80;;;1.37;;
7493;SDS011;3788;49.902;8.590;2023-09-19T08:33:56;2.37;;;1.40;;
7493;SDS011;3788;49.902;8.590;2023-09-19T08:36:23;2.27;;;1.33;;
7493;SDS011;3788;49.902;8.590;2023-09-19T08:38:51;2.30;;;1.60;;
7493;SDS011;3788;49.902;8.590;2023-09-19T08:41:17;2.47;;;1.30;;
7493;SDS011;3788;49.902;8.590;2023-09-19T08:43:44;2.60;;;1.23;;
7493;SDS011;3788;49.902;8.590;2023-09-19T08:46:14;3.00;;;1.50;;
7493;SDS011;3788;49.902;8.590;2023-09-19T08:48:44;2.50;;;1.30;;
7493;SDS011;3788;49.902;8.590;2023-09-19T08:51:16;2.07;;;1.40;;
7493;SDS011;3788;49.902;8.590;2023-09-19T08:53:50;3.03;;;1.70;;
7493;SDS011;3788;49.902;8.590;2023-09-19T08:56:24;2.97;;;1.30;;
7493;SDS011;3788;49.902;8.590;2023-09-19T08:58:55;3.23;;;1.50;;
7493;SDS011;3788;49.902;8.590;2023-09-19T09:03:53;3.37;;;1.40;;
7493;SDS011;3788;49.902;8.590;2023-09-19T09:06:21;1.93;;;1.40;;
7493;SDS011;3788;49.902;8.590;2023-09-19T09:08:49;2.93;;;1.83;;
7493;SDS011;3788;49.902;8.590;2023-09-19T09:11:18;2.77;;;1.43;;
7493;SDS011;3788;49.902;8.590;2023-09-19T09:13:45;2.37;;;1.43;;
7493;SDS011;3788;49.902;8.590;2023-09-19T09:16:13;1.87;;;1.63;;
7493;SDS011;3788;49.902;8.590;2023-09-19T09:18:43;2.77;;;1.43;;
7493;SDS011;3788;49.902;8.590;2023-09-19T09:21:10;2.00;;;1.33;;
7493;SDS011;3788;49.902;8.590;2023-09-19T09:23:39;3.80;;;1.70;;
7493;SDS011;3788;49.902;8.590;2023-09-19T09:26:06;1.90;;;1.50;;
7493;SDS011;3788;49.902;8.590;2023-09-19T09:28:35;2.37;;;1.50;;
7493;SDS011;3788;49.902;8.590;2023-09-19T09:31:15;1.73;;;1.30;;
7493;SDS011;3788;49.902;8.590;2023-09-19T09:33:52;2.43;;;1.30;;
7493;SDS011;3788;49.902;8.590;2023-09-19T09:36:31;1.90;;;1.17;;
7493;SDS011;3788;49.902;8.590;2023-09-19T09:39:01;5.07;;;1.40;;
7493;SDS011;3788;49.902;8.590;2023-09-19T09:41:41;2.53;;;1.50;;
7493;SDS011;3788;49.902;8.590;2023-09-19T09:44:13;2.93;;;1.60;;
7493;SDS011;3788;49.902;8.590;2023-09-19T09:46:42;3.33;;;1.50;;
7493;SDS011;3788;49.902;8.590;2023-09-19T09:49:24;3.90;;;1.73;;
7493;SDS011;3788;49.902;8.590;2023-09-19T09:51:59;3.70;;;1.60;;
7493;SDS011;3788;49.902;8.590;2023-09-19T09:54:30;2.80;;;1.60;;
7493;SDS011;3788;49.902;8.590;2023-09-19T09:57:02;4.50;;;1.73;;
7493;SDS011;3788;49.902;8.590;2023-09-19T09:59:49;3.33;;;1.40;;
7493;SDS011;3788;49.902;8.590;2023-09-19T10:02:19;5.13;;;1.80;;
7493;SDS011;3788;49.902;8.590;2023-09-19T10:04:53;3.77;;;1.40;;
7493;SDS011;3788;49.902;8.590;2023-09-19T10:07:40;3.17;;;1.67;;
7493;SDS011;3788;49.902;8.590;2023-09-19T10:10:13;2.80;;;1.50;;
7493;SDS011;3788;49.902;8.590;2023-09-19T10:12:43;5.30;;;2.23;;
7493;SDS011;3788;49.902;8.590;2023-09-19T10:15:18;4.47;;;1.77;;
7493;SDS011;3788;49.902;8.590;2023-09-19T10:17:46;2.73;;;1.67;;
7493;SDS011;3788;49.902;8.590;2023-09-19T10:20:14;5.43;;;1.67;;
7493;SDS011;3788;49.902;8.590;2023-09-19T10:23:03;3.40;;;1.47;;
7493;SDS011;3788;49.902;8.590;2023-09-19T10:25:36;4.83;;;1.80;;
7493;SDS011;3788;49.902;8.590;2023-09-19T10:28:05;3.47;;;1.90;;
7493;SDS011;3788;49.902;8.590;2023-09-19T10:30:37;2.57;;;1.53;;
7493;SDS011;3788;49.902;8.590;2023-09-19T10:33:09;3.30;;;1.70;;
7493;SDS011;3788;49.902;8.590;2023-09-19T10:35:37;3.03;;;1.70;;
7493;SDS011;3788;49.902;8.590;2023-09-19T10:38:06;2.60;;;1.70;;
7493;SDS011;3788;49.902;8.590;2023-09-19T10:40:35;2.97;;;2.23;;
7493;SDS011;3788;49.902;8.590;2023-09-19T10:43:08;3.47;;;1.60;;
7493;SDS011;3788;49.902;8.590;2023-09-19T10:45:39;4.97;;;1.70;;
7493;SDS011;3788;49.902;8.590;2023-09-19T10:48:09;3.70;;;1.70;;
7493;SDS011;3788;49.902;8.590;2023-09-19T10:50:44;3.37;;;1.50;;
7493;SDS011;3788;49.902;8.590;2023-09-19T10:53:14;2.73;;;1.93;;
7493;SDS011;3788;49.902;8.590;2023-09-19T10:55:47;3.67;;;1.40;;
7493;SDS011;3788;49.902;8.590;2023-09-19T10:58:28;3.00;;;1.63;;
7493;SDS011;3788;49.902;8.590;2023-09-19T11:01:00;2.90;;;1.53;;
7493;SDS011;3788;49.902;8.590;2023-09-19T11:03:37;2.67;;;1.50;;
7493;SDS011;3788;49.902;8.590;2023-09-19T11:06:09;6.60;;;2.03;;
7493;SDS011;3788;49.902;8.590;2023-09-19T11:08:51;2.27;;;1.43;;
7493;SDS011;3788;49.902;8.590;2023-09-19T11:11:38;4.63;;;1.93;;
7493;SDS011;3788;49.902;8.590;2023-09-19T11:14:15;5.33;;;2.03;;
7493;SDS011;3788;49.902;8.590;2023-09-19T11:23:17;3.97;;;1.63;;
7493;SDS011;3788;49.902;8.590;2023-09-19T11:25:52;2.53;;;1.50;;
7493;SDS011;3788;49.902;8.590;2023-09-19T11:28:29;4.57;;;1.70;;
7493;SDS011;3788;49.902;8.590;2023-09-19T11:40:11;1.77;;;1.10;;
7493;SDS011;3788;49.902;8.590;2023-09-19T11:42:42;2.07;;;1.60;;
7493;SDS011;3788;49.902;8.590;2023-09-19T11:48:22;3.83;;;1.80;;
7493;SDS011;3788;49.902;8.590;2023-09-19T11:50:50;5.60;;;1.60;;
7493;SDS011;3788;49.902;8.590;2023-09-19T11:53:18;4.63;;;1.40;;
7493;SDS011;3788;49.902;8.590;2023-09-19T11:55:50;2.97;;;1.80;;
7493;SDS011;3788;49.902;8.590;2023-09-19T11:58:17;4.07;;;1.80;;
7493;SDS011;3788;49.902;8.590;2023-09-19T12:00:45;3.07;;;1.43;;
7493;SDS011;3788;49.902;8.590;2023-09-19T12:03:12;3.50;;;1.60;;
7493;SDS011;3788;49.902;8.590;2023-09-19T12:05:40;4.97;;;2.03;;
7493;SDS011;3788;49.902;8.590;2023-09-19T12:08:07;2.73;;;1.93;;
7493;SDS011;3788;49.902;8.590;2023-09-19T12:10:43;4.70;;;1.60;;
7493;SDS011;3788;49.902;8.590;2023-09-19T12:13:16;3.07;;;1.40;;
7493;SDS011;3788;49.902;8.590;2023-09-19T12:15:43;6.27;;;1.70;;
7493;SDS011;3788;49.902;8.590;2023-09-19T12:18:25;5.00;;;1.90;;
7493;SDS011;3788;49.902;8.590;2023-09-19T12:20:52;3.93;;;1.77;;
7493;SDS011;3788;49.902;8.590;2023-09-19T12:23:19;2.63;;;1.53;;
7493;SDS011;3788;49.902;8.590;2023-09-19T12:25:46;3.03;;;1.40;;
7493;SDS011;3788;49.902;8.590;2023-09-19T12:28:18;2.60;;;1.47;;
7493;SDS011;3788;49.902;8.590;2023-09-19T12:30:46;2.00;;;1.40;;
7493;SDS011;3788;49.902;8.590;2023-09-19T12:33:15;2.73;;;1.53;;
7493;SDS011;3788;49.902;8.590;2023-09-19T12:35:44;3.40;;;1.40;;
7493;SDS011;3788;49.902;8.590;2023-09-19T12:38:10;2.70;;;1.27;;
7493;SDS011;3788;49.902;8.590;2023-09-19T12:40:49;2.80;;;1.40;;
7493;SDS011;3788;49.902;8.590;2023-09-19T12:43:16;3.60;;;1.50;;
7493;SDS011;3788;49.902;8.590;2023-09-19T12:45:46;3.77;;;1.53;;
7493;SDS011;3788;49.902;8.590;2023-09-19T12:48:20;2.33;;;1.53;;
7493;SDS011;3788;49.902;8.590;2023-09-19T12:51:03;3.40;;;1.40;;
7493;SDS011;3788;49.902;8.590;2023-09-19T12:53:35;3.50;;;1.43;;
7493;SDS011;3788;49.902;8.590;2023-09-19T12:56:05;2.17;;;1.50;;
7493;SDS011;3788;49.902;8.590;2023-09-19T12:58:34;2.53;;;1.37;;
7493;SDS011;3788;49.902;8.590;2023-09-19T13:01:14;3.13;;;1.50;;
7493;SDS011;3788;49.902;8.590;2023-09-19T13:03:41;2.30;;;1.40;;
7493;SDS011;3788;49.902;8.590;2023-09-19T13:06:08;2.97;;;1.20;;
7493;SDS011;3788;49.902;8.590;2023-09-19T13:08:35;3.07;;;1.00;;
7493;SDS011;3788;49.902;8.590;2023-09-19T13:11:07;2.30;;;1.50;;
7493;SDS011;3788;49.902;8.590;2023-09-19T13:13:39;3.13;;;1.30;;
7493;SDS011;3788;49.902;8.590;2023-09-19T13:16:07;3.47;;;1.43;;
7493;SDS011;3788;49.902;8.590;2023-09-19T13:18:43;2.10;;;1.70;;
7493;SDS011;3788;49.902;8.590;2023-09-19T13:21:11;2.67;;;1.53;;
7493;SDS011;3788;49.902;8.590;2023-09-19T13:23:47;2.73;;;1.30;;
7493;SDS011;3788;49.902;8.590;2023-09-19T13:26:15;2.33;;;1.20;;
7493;SDS011;3788;49.902;8.590;2023-09-19T13:28:43;7.43;;;1.20;;
7493;SDS011;3788;49.902;8.590;2023-09-19T13:31:10;3.57;;;1.33;;
7493;SDS011;3788;49.902;8.590;2023-09-19T13:33:42;3.23;;;1.70;;
7493;SDS011;3788;49.902;8.590;2023-09-19T13:36:09;2.40;;;1.30;;
7493;SDS011;3788;49.902;8.590;2023-09-19T13:38:37;4.83;;;1.53;;
7493;SDS011;3788;49.902;8.590;2023-09-19T13:41:03;2.37;;;1.50;;
7493;SDS011;3788;49.902;8.590;2023-09-19T13:43:31;2.40;;;1.50;;
7493;SDS011;3788;49.902;8.590;2023-09-19T13:45:59;3.13;;;1.67;;
7493;SDS011;3788;49.902;8.590;2023-09-19T13:48:26;1.80;;;1.20;;
7493;SDS011;3788;49.902;8.590;2023-09-19T13:50:55;3.23;;;1.47;;
7493;SDS011;3788;49.902;8.590;2023-09-19T13:53:21;2.40;;;1.57;;
7493;SDS011;3788;49.902;8.590;2023-09-19T13:55:48;2.70;;;1.30;;
7493;SDS011;3788;49.902;8.590;2023-09-19T13:58:15;1.83;;;1.13;;
7493;SDS011;3788;49.902;8.590;2023-09-19T14:00:42;2.70;;;1.30;;
7493;SDS011;3788;49.902;8.590;2023-09-19T14:03:10;3.23;;;1.50;;
7493;SDS011;3788;49.902;8.590;2023-09-19T14:05:37;1.87;;;1.30;;
7493;SDS011;3788;49.902;8.590;2023-09-19T14:08:04;2.30;;;1.30;;
7493;SDS011;3788;49.902;8.590;2023-09-19T14:10:31;2.67;;;1.40;;
7493;SDS011;3788;49.902;8.590;2023-09-19T14:13:00;2.63;;;1.60;;
7493;SDS011;3788;49.902;8.590;2023-09-19T14:15:27;2.30;;;1.23;;
7493;SDS011;3788;49.902;8.590;2023-09-19T14:17:55;4.13;;;1.63;;
7493;SDS011;3788;49.902;8.590;2023-09-19T14:20:25;2.07;;;1.10;;
7493;SDS011;3788;49.902;8.590;2023-09-19T14:22:54;2.77;;;1.37;;
7493;SDS011;3788;49.902;8.590;2023-09-19T14:25:21;1.30;;;1.20;;
7493;SDS011;3788;49.902;8.590;2023-09-19T14:27:48;2.83;;;1.40;;
7493;SDS011;3788;49.902;8.590;2023-09-19T14:30:14;1.30;;;1.20;;
7493;SDS011;3788;49.902;8.590;2023-09-19T14:32:41;1.93;;;1.40;;
7493;SDS011;3788;49.902;8.590;2023-09-19T14:35:08;1.43;;;1.03;;
7493;SDS011;3788;49.902;8.590;2023-09-19T14:37:37;2.47;;;1.20;;
7493;SDS011;3788;49.902;8.590;2023-09-19T14:40:05;2.10;;;1.40;;
7493;SDS011;3788;49.902;8.590;2023-09-19T14:42:34;1.63;;;1.40;;
7493;SDS011;3788;49.902;8.590;2023-09-19T14:45:03;1.57;;;1.20;;
7493;SDS011;3788;49.902;8.590;2023-09-19T14:47:31;1.53;;;1.00;;
7493;SDS011;3788;49.902;8.590;2023-09-19T14:49:58;2.30;;;1.40;;
7493;SDS011;3788;49.902;8.590;2023-09-19T14:52:25;3.10;;;1.10;;
7493;SDS011;3788;49.902;8.590;2023-09-19T14:54:54;4.90;;;1.50;;
7493;SDS011;3788;49.902;8.590;2023-09-19T14:57:21;2.10;;;1.23;;
7493;SDS011;3788;49.902;8.590;2023-09-19T14:59:49;1.67;;;1.30;;
7493;SDS011;3788;49.902;8.590;2023-09-19T15:02:16;1.80;;;1.17;;
7493;SDS011;3788;49.902;8.590;2023-09-19T15:04:42;3.70;;;1.47;;
7493;SDS011;3788;49.902;8.590;2023-09-19T15:07:12;2.63;;;1.67;;
7493;SDS011;3788;49.902;8.590;2023-09-19T15:09:40;3.00;;;1.40;;
7493;SDS011;3788;49.902;8.590;2023-09-19T15:12:08;1.87;;;1.50;;
7493;SDS011;3788;49.902;8.590;2023-09-19T15:14:35;2.40;;;1.13;;
7493;SDS011;3788;49.902;8.590;2023-09-19T15:17:02;2.27;;;1.40;;
7493;SDS011;3788;49.902;8.590;2023-09-19T15:19:29;2.17;;;1.27;;
7493;SDS011;3788;49.902;8.590;2023-09-19T15:21:56;2.30;;;1.40;;
7493;SDS011;3788;49.902;8.590;2023-09-19T15:24:23;2.03;;;1.13;;
7493;SDS011;3788;49.902;8.590;2023-09-19T15:26:51;2.77;;;1.40;;
7493;SDS011;3788;49.902;8.590;2023-09-19T15:29:21;1.80;;;1.20;;
7493;SDS011;3788;49.902;8.590;2023-09-19T15:31:48;2.73;;;1.20;;
7493;SDS011;3788;49.902;8.590;2023-09-19T15:34:15;1.97;;;1.20;;
7493;SDS011;3788;49.902;8.590;2023-09-19T15:36:42;3.13;;;1.10;;
7493;SDS011;3788;49.902;8.590;2023-09-19T15:39:09;1.27;;;1.10;;
7493;SDS011;3788;49.902;8.590;2023-09-19T15:41:37;1.33;;;1.20;;
7493;SDS011;3788;49.902;8.590;2023-09-19T15:44:10;2.47;;;1.50;;
7493;SDS011;3788;49.902;8.590;2023-09-19T15:46:39;1.77;;;1.17;;
7493;SDS011;3788;49.902;8.590;2023-09-19T15:49:06;1.57;;;0.90;;